Time;durP1;ratioP1;P1;durP2;ratioP2;P2;SDS_P1;SDS_P2;PMS_P1;PMS_P2;Temp;Humidity;BMP_temperature;BMP_pressure;BME280_temperature;BME280_humidity;BME280_pressure;Samples;Min_cycle;Max_cycle;Signal;HPM_P1;HPM_P2
2021/07/07 00:01:02;;;;;;;0.30;0.30;;;;;;;18.36;80.55;98757.50;5132212;27;41075;-85
2021/07/07 00:03:30;;;;;;;0.20;0.20;;;;;;;18.47;80.46;98768.03;5132493;27;38851;-84
2021/07/07 00:05:58;;;;;;;0.30;0.30;;;;;;;18.50;80.75;98751.66;5132685;27;40661;-82
2021/07/07 00:08:25;;;;;;;0.60;0.40;;;;;;;18.35;80.57;98720.94;5150011;27;41685;-84
2021/07/07 00:10:53;;;;;;;0.30;0.30;;;;;;;18.50;80.57;98751.66;5150428;27;42100;-83
2021/07/07 00:13:20;;;;;;;0.47;0.47;;;;;;;18.53;80.30;98735.25;5132135;27;39325;-82
2021/07/07 00:15:50;;;;;;;0.30;0.30;;;;;;;18.42;80.86;98704.09;5133261;27;42026;-85
2021/07/07 00:18:17;;;;;;;0.40;0.40;;;;;;;18.47;80.75;98722.44;5150295;27;42938;-82
2021/07/07 00:20:46;;;;;;;0.30;0.30;;;;;;;18.57;80.57;98750.03;5125151;27;42714;-84
2021/07/07 00:23:14;;;;;;;0.20;0.20;;;;;;;18.58;80.49;98741.03;5129411;27;40040;-88
2021/07/07 00:25:42;;;;;;;0.27;0.27;;;;;;;18.58;80.46;98741.03;5129837;27;41505;-84
2021/07/07 00:28:17;;;;;;;0.47;0.30;;;;;;;18.56;80.34;98754.56;5113769;27;41987;-82
2021/07/07 00:30:46;;;;;;;0.60;0.60;;;;;;;18.54;80.25;98742.31;5122955;27;41353;-85
2021/07/07 00:33:17;;;;;;;0.40;0.40;;;;;;;18.51;80.41;98750.66;5112081;27;38798;-83
2021/07/07 00:35:47;;;;;;;0.30;0.30;;;;;;;18.49;80.06;98756.16;5111024;27;41186;-85
2021/07/07 00:38:15;;;;;;;0.30;0.30;;;;;;;18.44;80.07;98749.53;5111532;27;42019;-83
2021/07/07 00:40:43;;;;;;;1.90;0.30;;;;;;;18.50;80.23;98770.41;5111895;27;42529;-86
2021/07/07 00:43:11;;;;;;;0.97;0.97;;;;;;;18.50;80.18;98789.19;5112913;27;39791;-83
2021/07/07 00:45:39;;;;;;;0.60;0.60;;;;;;;18.44;80.56;98771.84;5128725;27;41876;-84
2021/07/07 00:48:07;;;;;;;0.20;0.20;;;;;;;18.49;80.54;98779.44;5112421;27;41911;-87
2021/07/07 00:50:36;;;;;;;0.30;0.30;;;;;;;18.41;80.11;98744.50;5128405;27;41230;-82
2021/07/07 00:53:04;;;;;;;0.40;0.40;;;;;;;18.48;80.81;98756.31;5111066;27;39323;-86
2021/07/07 00:55:31;;;;;;;0.30;0.30;;;;;;;18.47;80.92;98762.66;5128371;27;40945;-82
2021/07/07 00:58:00;;;;;;;0.20;0.20;;;;;;;18.46;81.12;98739.50;5129461;27;42900;-81
2021/07/07 01:00:28;;;;;;;1.43;0.70;;;;;;;18.38;81.29;98729.53;5111172;27;41264;-85
2021/07/07 01:02:59;;;;;;;0.40;0.40;;;;;;;18.40;80.97;98743.66;5111073;27;39274;-82
2021/07/07 01:05:26;;;;;;;0.20;0.20;;;;;;;18.50;80.83;98773.09;5111787;27;40848;-85
2021/07/07 01:07:55;;;;;;;0.40;0.40;;;;;;;18.43;80.60;98759.41;5128647;27;42731;-86
2021/07/07 01:10:23;;;;;;;0.30;0.30;;;;;;;18.55;80.54;98776.16;5111083;27;42094;-82
2021/07/07 01:12:53;;;;;;;0.20;0.20;;;;;;;18.49;80.29;98769.56;5129355;27;39827;-81
2021/07/07 01:15:22;;;;;;;0.50;0.50;;;;;;;18.54;80.17;98777.19;5128923;27;42031;-86
2021/07/07 01:17:50;;;;;;;0.30;0.30;;;;;;;18.55;80.20;98773.47;5129211;27;43165;-82
2021/07/07 01:20:19;;;;;;;0.50;0.50;;;;;;;18.53;80.22;98781.72;5118103;27;41279;-85
2021/07/07 01:22:49;;;;;;;0.30;0.30;;;;;;;18.29;80.25;98730.44;5135751;27;40202;-80
2021/07/07 01:25:18;;;;;;;0.20;0.20;;;;;;;18.42;81.13;98741.63;5135061;27;41289;-85
2021/07/07 01:27:46;;;;;;;0.47;0.47;;;;;;;18.39;80.91;98750.00;5135222;27;42882;-84
2021/07/07 01:30:16;;;;;;;0.30;0.30;;;;;;;18.46;80.95;98763.66;5134898;27;41420;-86
2021/07/07 01:32:45;;;;;;;0.70;0.70;;;;;;;18.34;80.87;98743.38;5152217;27;39498;-85
2021/07/07 01:35:13;;;;;;;0.23;0.23;;;;;;;18.37;80.76;98738.56;5152568;27;42417;-87
2021/07/07 01:37:42;;;;;;;0.40;0.40;;;;;;;18.45;80.99;98756.59;5152518;27;42158;-82
2021/07/07 01:40:14;;;;;;;0.37;0.37;;;;;;;18.37;80.54;98749.31;5154469;27;42548;-83
2021/07/07 01:42:42;;;;;;;0.30;0.30;;;;;;;18.40;80.46;98749.00;5135194;27;39071;-87
2021/07/07 01:45:11;;;;;;;0.30;0.30;;;;;;;18.31;80.52;98734.63;5154210;27;42824;-81
2021/07/07 01:47:39;;;;;;;0.30;0.30;;;;;;;18.30;80.69;98738.31;5151669;27;42218;-83
2021/07/07 01:50:11;;;;;;;0.27;0.27;;;;;;;18.23;80.54;98731.84;5134473;27;41119;-80
2021/07/07 01:52:39;;;;;;;0.33;0.33;;;;;;;18.40;80.47;98766.94;5152107;27;40922;-85
2021/07/07 01:55:09;;;;;;;0.30;0.30;;;;;;;18.37;80.17;98765.38;5134375;27;40677;-82
2021/07/07 01:57:45;;;;;;;0.30;0.30;;;;;;;18.42;80.32;98767.63;5134614;27;41805;-85
2021/07/07 02:00:16;;;;;;;0.30;0.30;;;;;;;18.40;79.95;98753.53;5153770;27;42011;-83
2021/07/07 02:02:45;;;;;;;0.47;0.47;;;;;;;18.29;80.21;98736.66;5135313;27;39386;-85
2021/07/07 02:05:13;;;;;;;0.37;0.37;;;;;;;18.32;80.31;98748.88;5152079;27;40461;-86
2021/07/07 02:07:42;;;;;;;0.40;0.40;;;;;;;18.25;80.32;98737.94;5134930;27;42857;-87
2021/07/07 02:10:12;;;;;;;0.30;0.30;;;;;;;18.23;79.92;98737.22;5133880;27;41713;-84
2021/07/07 02:12:42;;;;;;;0.30;0.30;;;;;;;18.24;80.06;98760.34;5135158;27;38758;-87
2021/07/07 02:15:13;;;;;;;0.50;0.50;;;;;;;18.31;79.98;98782.91;5134535;27;40949;-85
2021/07/07 02:17:41;;;;;;;0.40;0.40;;;;;;;18.24;80.20;98770.22;5135592;27;41634;-86
2021/07/07 02:20:12;;;;;;;0.27;0.27;;;;;;;18.20;79.91;98747.38;5152649;27;43221;-84
2021/07/07 02:22:42;;;;;;;1.90;0.40;;;;;;;18.27;80.07;98770.78;5134967;27;39227;-86
2021/07/07 02:25:13;;;;;;;0.30;0.30;;;;;;;18.21;79.86;98767.84;5152086;27;40759;-85
2021/07/07 02:27:42;;;;;;;0.40;0.37;;;;;;;18.30;80.00;98783.88;5134471;27;42009;-84
2021/07/07 02:30:14;;;;;;;0.40;0.40;;;;;;;18.20;79.89;98768.81;5134178;27;42353;-89
2021/07/07 02:32:42;;;;;;;0.20;0.20;;;;;;;18.18;79.95;98768.97;5133784;27;39084;-87
2021/07/07 02:35:12;;;;;;;0.27;0.27;;;;;;;18.08;79.82;98765.47;5152634;27;42095;-83
2021/07/07 02:37:41;;;;;;;0.33;0.33;;;;;;;18.14;79.89;98770.28;5133955;27;41814;-87
2021/07/07 02:40:11;;;;;;;0.40;0.40;;;;;;;18.13;79.80;98781.97;5134478;27;41072;-89
2021/07/07 02:42:38;;;;;;;0.30;0.30;;;;;;;18.14;80.28;98781.00;5152721;27;40132;-81
2021/07/07 02:45:10;;;;;;;0.40;0.40;;;;;;;18.10;80.10;98790.31;5151156;27;40587;-84
2021/07/07 02:47:38;;;;;;;0.53;0.53;;;;;;;18.02;79.97;98782.16;5133563;27;42038;-88
2021/07/07 02:50:08;;;;;;;1.40;1.30;;;;;;;18.17;80.31;98812.03;5133879;27;42508;-84
2021/07/07 02:52:36;;;;;;;0.20;0.20;;;;;;;18.13;80.03;98805.25;5152269;27;39401;-87
2021/07/07 02:55:04;;;;;;;0.53;0.53;;;;;;;18.11;80.65;98801.88;5133476;27;40682;-83
2021/07/07 02:57:55;;;;;;;0.40;0.30;;;;;;;18.12;80.39;98804.41;5133712;27;41747;-85
2021/07/07 03:00:22;;;;;;;0.33;0.33;;;;;;;18.14;80.32;98813.16;5150602;27;41293;-82
2021/07/07 03:02:50;;;;;;;0.43;0.30;;;;;;;18.03;80.56;98789.19;5133435;27;40216;-84
2021/07/07 03:05:17;;;;;;;0.70;0.70;;;;;;;18.09;80.87;98793.97;5133491;27;40985;-84
2021/07/07 03:07:45;;;;;;;0.60;0.60;;;;;;;18.08;80.90;98791.44;5133248;27;41759;-85
2021/07/07 03:10:14;;;;;;;0.30;0.30;;;;;;;18.02;81.12;98783.97;5150685;27;42013;-84
2021/07/07 03:12:41;;;;;;;0.40;0.40;;;;;;;18.06;81.04;98804.97;5151458;27;40107;-87
2021/07/07 03:15:10;;;;;;;0.20;0.20;;;;;;;18.10;80.58;98814.44;5151805;27;42007;-83
2021/07/07 03:17:39;;;;;;;0.40;0.40;;;;;;;17.97;80.79;98787.09;5134498;27;42054;-85
2021/07/07 03:20:09;;;;;;;0.40;0.40;;;;;;;18.04;80.71;98804.28;5150358;27;42046;-84
2021/07/07 03:22:37;;;;;;;0.30;0.30;;;;;;;17.96;80.58;98774.69;5113122;27;39198;-88
2021/07/07 03:25:05;;;;;;;0.30;0.30;;;;;;;18.06;80.43;98780.00;5113418;27;40791;-82
2021/07/07 03:27:33;;;;;;;0.30;0.30;;;;;;;18.11;80.44;98813.44;5129919;27;41983;-83
2021/07/07 03:30:01;;;;;;;0.50;0.50;;;;;;;18.06;80.36;98804.97;5130309;27;42762;-89
2021/07/07 03:32:28;;;;;;;0.43;0.37;;;;;;;18.14;80.38;98807.78;5111991;27;40103;-85
2021/07/07 03:34:58;;;;;;;0.40;0.40;;;;;;;18.06;80.78;98772.81;5112035;27;41507;-86
2021/07/07 03:37:25;;;;;;;0.20;0.20;;;;;;;18.12;80.44;98788.31;5111934;27;41822;-85
2021/07/07 03:39:53;;;;;;;0.60;0.40;;;;;;;18.05;80.41;98776.47;5116892;27;41546;-84
2021/07/07 03:42:21;;;;;;;0.37;0.37;;;;;;;18.08;80.60;98792.28;5120378;27;39883;-85
2021/07/07 03:44:48;;;;;;;0.60;0.37;;;;;;;18.07;80.34;98806.66;5112514;27;40910;-85
2021/07/07 03:47:16;;;;;;;0.37;0.37;;;;;;;18.13;80.24;98819.50;5130433;27;43036;-87
2021/07/07 03:49:44;;;;;;;0.30;0.30;;;;;;;18.13;80.23;98834.75;5112744;27;41285;-82
2021/07/07 03:52:13;;;;;;;0.33;0.33;;;;;;;18.12;80.41;98812.44;5129726;27;39060;-85
2021/07/07 03:54:40;;;;;;;0.30;0.30;;;;;;;18.02;80.06;98787.50;5130236;27;41768;-86
2021/07/07 03:57:08;;;;;;;0.30;0.30;;;;;;;18.13;80.28;98806.09;5111890;27;43081;-86
2021/07/07 03:59:36;;;;;;;0.60;0.40;;;;;;;18.05;80.49;98786.38;5112611;27;41038;-85
2021/07/07 04:02:04;;;;;;;0.40;0.20;;;;;;;18.12;80.70;98806.25;5111638;27;40332;-84
2021/07/07 04:04:31;;;;;;;0.30;0.30;;;;;;;18.12;80.62;98807.09;5130225;27;42774;-84
2021/07/07 04:07:00;;;;;;;0.40;0.40;;;;;;;18.04;80.40;98792.72;5112482;27;41999;-84
2021/07/07 04:09:29;;;;;;;0.40;0.40;;;;;;;18.13;80.50;98798.06;5112025;27;41117;-84
2021/07/07 04:11:57;;;;;;;0.87;0.40;;;;;;;18.06;81.10;98782.69;5112341;27;39963;-89
2021/07/07 04:14:27;;;;;;;0.43;0.43;;;;;;;18.06;81.45;98794.25;5129870;27;42090;-87
2021/07/07 04:16:57;;;;;;;0.60;0.60;;;;;;;18.09;81.53;98801.16;5112494;27;42094;-84
2021/07/07 04:19:26;;;;;;;0.50;0.50;;;;;;;18.10;81.34;98817.09;5111565;27;41244;-89
2021/07/07 04:21:54;;;;;;;0.67;0.47;;;;;;;18.11;81.36;98832.19;5147191;27;38937;-87
2021/07/07 04:24:22;;;;;;;0.33;0.33;;;;;;;18.14;81.04;98831.91;5150560;27;41783;-88
2021/07/07 04:26:52;;;;;;;0.50;0.50;;;;;;;18.02;81.32;98800.91;5129913;27;42755;-84
2021/07/07 04:29:20;;;;;;;0.40;0.40;;;;;;;18.20;81.47;98814.41;5149831;27;42331;-84
2021/07/07 04:31:48;;;;;;;0.30;0.30;;;;;;;18.18;81.18;98814.53;5149671;27;40660;-85
2021/07/07 04:34:16;;;;;;;0.40;0.40;;;;;;;18.18;81.32;98803.81;5131658;27;40789;-87
2021/07/07 04:36:44;;;;;;;0.30;0.30;;;;;;;18.44;80.94;98843.41;5132300;27;41895;-83
2021/07/07 04:39:11;;;;;;;0.60;0.60;;;;;;;18.48;80.50;98842.13;5141268;27;41227;-85
2021/07/07 04:41:39;;;;;;;0.37;0.37;;;;;;;18.43;80.89;98829.13;5137892;27;39129;-89
2021/07/07 04:44:08;;;;;;;0.30;0.30;;;;;;;18.44;80.70;98825.47;5141570;27;42053;-90
2021/07/07 04:46:35;;;;;;;0.60;0.60;;;;;;;18.36;80.52;98811.97;5122018;27;42672;-88
2021/07/07 04:49:04;;;;;;;0.30;0.30;;;;;;;18.36;80.73;98827.19;5122892;27;41184;-82
2021/07/07 04:51:31;;;;;;;0.47;0.47;;;;;;;18.42;80.55;98853.44;5141220;27;39651;-88
2021/07/07 04:53:59;;;;;;;0.40;0.40;;;;;;;18.39;80.78;98875.19;5126409;27;40911;-88
2021/07/07 04:56:26;;;;;;;0.40;0.40;;;;;;;18.24;80.59;98856.88;5134956;27;41878;-85
2021/07/07 04:58:54;;;;;;;0.30;0.30;;;;;;;18.39;80.42;98880.53;5142394;27;42494;-87
2021/07/07 05:01:23;;;;;;;0.30;0.30;;;;;;;18.36;80.36;98864.75;5154135;27;40419;-87
2021/07/07 05:03:50;;;;;;;0.57;0.30;;;;;;;18.37;80.43;98869.13;5135056;27;42218;-90
2021/07/07 05:06:18;;;;;;;0.30;0.30;;;;;;;18.33;80.50;98862.34;5134123;27;43053;-87
2021/07/07 05:08:46;;;;;;;0.30;0.30;;;;;;;18.43;80.35;98860.47;5135139;27;41657;-90
2021/07/07 05:11:16;;;;;;;0.40;0.40;;;;;;;18.45;80.46;98853.13;5151676;27;40768;-84
2021/07/07 05:13:43;;;;;;;0.33;0.33;;;;;;;18.49;80.53;98838.44;5152857;27;40669;-89
2021/07/07 05:16:13;;;;;;;0.40;0.40;;;;;;;18.46;80.36;98819.97;5152910;27;42801;-86
2021/07/07 05:18:42;;;;;;;0.23;0.23;;;;;;;18.61;80.16;98842.69;5134262;27;41461;-88
2021/07/07 05:21:11;;;;;;;0.40;0.40;;;;;;;18.65;79.84;98844.09;5127766;27;39182;-89
2021/07/07 05:23:38;;;;;;;0.30;0.30;;;;;;;18.61;80.00;98837.31;5114226;27;40767;-84
2021/07/07 05:26:06;;;;;;;0.50;0.50;;;;;;;18.65;80.49;98833.34;5120768;27;41638;-81
2021/07/07 05:28:33;;;;;;;0.47;0.47;;;;;;;18.63;80.67;98819.25;5152797;27;42569;-88
2021/07/07 05:31:05;;;;;;;0.37;0.37;;;;;;;18.65;80.65;98812.75;5135710;27;39283;-86
2021/07/07 05:33:35;;;;;;;0.20;0.20;;;;;;;18.68;80.46;98827.66;5153340;27;42715;-85
2021/07/07 05:36:06;;;;;;;0.50;0.50;;;;;;;18.78;80.24;98859.84;5135171;27;43202;-91
2021/07/07 05:38:36;;;;;;;0.50;0.50;;;;;;;18.78;80.15;98870.59;5135354;27;42055;-88
2021/07/07 05:41:04;;;;;;;0.33;0.33;;;;;;;18.72;80.20;98865.78;5135491;27;38936;-87
2021/07/07 05:43:32;;;;;;;0.30;0.30;;;;;;;18.83;79.80;98882.53;5151856;27;42562;-85
2021/07/07 05:46:00;;;;;;;0.40;0.40;;;;;;;18.83;79.96;98869.13;5150871;27;43674;-89
2021/07/07 05:48:28;;;;;;;0.30;0.30;;;;;;;18.93;79.35;98880.66;5135432;27;41356;-86
2021/07/07 05:50:56;;;;;;;0.80;0.80;;;;;;;18.98;79.45;98894.50;5135595;27;38898;-87
2021/07/07 05:53:28;;;;;;;0.30;0.30;;;;;;;18.95;79.09;98881.38;5152663;27;41876;-87
2021/07/07 05:55:55;;;;;;;0.80;0.80;;;;;;;19.08;78.99;98890.91;5134415;27;42862;-84
2021/07/07 05:58:23;;;;;;;0.40;0.40;;;;;;;19.08;78.84;98893.59;5152914;27;42289;-87
2021/07/07 06:00:51;;;;;;;0.50;0.50;;;;;;;19.08;78.95;98896.28;5130050;27;38753;-83
2021/07/07 06:03:18;;;;;;;0.50;0.50;;;;;;;19.11;78.80;98899.53;5153925;27;41860;-89
2021/07/07 06:05:46;;;;;;;0.40;0.40;;;;;;;19.23;78.73;98918.97;5130262;27;41536;-87
2021/07/07 06:08:13;;;;;;;0.63;0.63;;;;;;;19.19;78.60;98914.88;5134693;27;41055;-89
2021/07/07 06:10:43;;;;;;;0.57;0.53;;;;;;;19.26;78.42;98924.03;5139051;27;39133;-86
2021/07/07 06:13:11;;;;;;;3.53;2.77;;;;;;;19.16;78.69;98896.41;5156848;27;40559;-89
2021/07/07 06:15:39;;;;;;;4.10;3.43;;;;;;;19.27;78.46;98920.38;5155576;27;42751;-85
2021/07/07 06:18:07;;;;;;;2.77;1.73;;;;;;;19.32;78.13;98916.22;5154428;27;40990;-84
2021/07/07 06:20:35;;;;;;;2.10;0.63;;;;;;;19.36;78.02;98908.72;5138869;27;38953;-82
2021/07/07 06:23:03;;;;;;;1.43;1.33;;;;;;;19.44;78.16;98898.06;5132434;27;40636;-80
2021/07/07 06:25:31;;;;;;;1.73;1.63;;;;;;;19.52;77.52;98908.94;5143327;27;41790;-80
2021/07/07 06:28:01;;;;;;;0.43;0.43;;;;;;;19.48;77.31;98918.25;5142588;27;41760;-83
2021/07/07 06:30:29;;;;;;;0.80;0.80;;;;;;;19.53;77.10;98917.84;5118675;27;39181;-83
2021/07/07 06:32:58;;;;;;;0.63;0.63;;;;;;;19.54;77.24;98932.94;5116328;27;40898;-83
2021/07/07 06:35:30;;;;;;;0.50;0.50;;;;;;;19.43;77.10;98944.72;5146689;27;44058;-90
2021/07/07 06:37:58;;;;;;;0.50;0.50;;;;;;;19.51;77.30;98990.53;5137057;27;41604;-83
2021/07/07 06:40:26;;;;;;;0.50;0.50;;;;;;;19.47;77.81;98994.47;5136526;27;39912;-85
2021/07/07 06:42:54;;;;;;;0.40;0.40;;;;;;;19.35;77.54;98960.75;5114626;27;41217;-84
2021/07/07 06:45:26;;;;;;;1.03;0.83;;;;;;;19.45;77.66;98966.91;5127047;27;41815;-84
2021/07/07 06:47:54;;;;;;;0.50;0.50;;;;;;;19.40;77.48;98939.66;5133686;27;42243;-84
2021/07/07 06:50:22;;;;;;;0.70;0.70;;;;;;;19.56;77.22;98960.50;5151168;27;39976;-80
2021/07/07 06:52:50;;;;;;;1.00;0.70;;;;;;;19.48;76.82;98942.44;5150699;27;41013;-80
2021/07/07 06:55:17;;;;;;;1.10;1.00;;;;;;;19.43;76.59;98936.66;5132096;27;41693;-81
2021/07/07 06:57:46;;;;;;;0.60;0.60;;;;;;;19.48;76.70;98949.66;5133576;27;41164;-81
2021/07/07 07:00:17;;;;;;;0.60;0.57;;;;;;;19.39;77.11;98943.34;5150334;27;40081;-80
2021/07/07 07:02:46;;;;;;;0.60;0.60;;;;;;;19.34;77.35;98948.31;5129224;27;40720;-83
2021/07/07 07:05:17;;;;;;;0.50;0.50;;;;;;;19.30;77.74;98957.63;5146330;27;41699;-82
2021/07/07 07:07:45;;;;;;;0.50;0.50;;;;;;;19.20;77.62;98935.38;5139234;27;42234;-83
2021/07/07 07:10:15;;;;;;;0.30;0.30;;;;;;;19.28;77.65;98940.88;5109399;27;38881;-80
2021/07/07 07:12:43;;;;;;;1.67;0.60;;;;;;;19.33;77.67;98935.88;5110565;27;42002;-85
2021/07/07 07:15:13;;;;;;;1.00;0.80;;;;;;;19.42;77.62;98937.66;5109999;27;42000;-82
2021/07/07 07:17:41;;;;;;;0.80;0.80;;;;;;;19.50;77.64;98932.44;5134026;27;41129;-82
2021/07/07 07:20:14;;;;;;;0.50;0.50;;;;;;;19.65;77.13;98952.41;5126119;27;39896;-84
2021/07/07 07:22:42;;;;;;;1.60;0.63;;;;;;;19.85;77.12;98979.16;5127611;27;40567;-81
2021/07/07 07:25:12;;;;;;;0.63;0.63;;;;;;;20.00;76.97;98985.72;5134928;27;42142;-85
2021/07/07 07:27:40;;;;;;;0.83;0.50;;;;;;;20.16;76.74;98971.56;5147523;27;42415;-82
2021/07/07 07:30:10;;;;;;;0.40;0.40;;;;;;;20.37;76.23;98993.66;5128823;27;40103;-83
2021/07/07 07:32:37;;;;;;;0.60;0.60;;;;;;;20.52;75.84;99002.88;5142548;27;41845;-82
2021/07/07 07:35:06;;;;;;;0.80;0.80;;;;;;;20.50;75.15;98979.81;5139940;27;41768;-82
2021/07/07 07:37:40;;;;;;;0.60;0.60;;;;;;;20.68;74.34;99010.22;5128133;27;41565;-84
2021/07/07 07:40:12;;;;;;;0.47;0.47;;;;;;;20.66;74.37;98993.38;5134812;27;38774;-86
2021/07/07 07:42:44;;;;;;;0.60;0.60;;;;;;;20.78;74.70;98994.81;5120497;27;40753;-81
2021/07/07 07:45:13;;;;;;;0.40;0.40;;;;;;;20.93;74.06;99001.31;5110486;27;42643;-79
2021/07/07 07:47:42;;;;;;;0.83;0.60;;;;;;;21.08;73.61;99007.84;5146914;27;41958;-83
2021/07/07 07:50:12;;;;;;;0.60;0.60;;;;;;;20.99;72.83;99013.34;5123932;27;38757;-81
2021/07/07 07:52:41;;;;;;;0.50;0.50;;;;;;;20.85;72.70;99008.50;5126815;27;41689;-86
2021/07/07 07:55:10;;;;;;;1.17;0.63;;;;;;;20.80;72.89;99011.66;5130122;27;42251;-84
2021/07/07 07:57:39;;;;;;;0.53;0.50;;;;;;;20.86;73.35;99018.28;5126293;27;41081;-86
2021/07/07 08:00:08;;;;;;;1.27;0.70;;;;;;;21.04;72.68;99014.53;5119856;27;39617;-88
2021/07/07 08:02:42;;;;;;;0.70;0.70;;;;;;;21.25;72.35;98983.72;5135856;27;41959;-84
2021/07/07 08:05:10;;;;;;;0.67;0.67;;;;;;;21.66;71.62;98974.78;5139689;27;43615;-83
2021/07/07 08:07:39;;;;;;;0.60;0.60;;;;;;;22.11;69.71;98984.41;5121653;27;41232;-87
2021/07/07 08:10:11;;;;;;;0.60;0.60;;;;;;;22.37;68.68;98974.31;5108159;27;39102;-86
2021/07/07 08:12:39;;;;;;;0.80;0.50;;;;;;;22.72;68.50;98999.28;5117355;27;40864;-87
2021/07/07 08:15:08;;;;;;;0.67;0.57;;;;;;;22.92;67.22;99016.84;5147960;27;42909;-86
2021/07/07 08:17:36;;;;;;;0.40;0.40;;;;;;;22.81;65.65;99019.91;5143190;27;42293;-85
2021/07/07 08:20:05;;;;;;;5.30;3.73;;;;;;;22.78;66.06;99017.53;5121543;27;39241;-85
2021/07/07 08:22:32;;;;;;;1.70;1.60;;;;;;;22.63;67.06;98997.59;5123776;27;40725;-83
2021/07/07 08:25:00;;;;;;;1.10;1.00;;;;;;;22.67;67.43;99017.84;5117182;27;41538;-84
2021/07/07 08:27:29;;;;;;;0.50;0.50;;;;;;;22.56;67.08;99010.91;5124645;27;41587;-86
2021/07/07 08:29:58;;;;;;;0.40;0.40;;;;;;;22.57;67.13;99018.84;5116663;27;39687;-85
2021/07/07 08:32:26;;;;;;;1.10;0.53;;;;;;;22.52;66.25;99010.41;5108231;27;41077;-86
2021/07/07 08:34:53;;;;;;;0.60;0.60;;;;;;;22.66;66.93;99021.53;5108602;27;42708;-84
2021/07/07 08:37:21;;;;;;;1.00;0.70;;;;;;;22.77;66.39;99024.78;5122712;27;42504;-82
2021/07/07 08:39:48;;;;;;;0.63;0.63;;;;;;;22.92;65.12;99019.53;5115797;27;39282;-85
2021/07/07 08:42:16;;;;;;;1.00;0.90;;;;;;;23.16;64.91;99024.91;5118028;27;41694;-86
2021/07/07 08:44:45;;;;;;;0.40;0.40;;;;;;;23.42;64.88;99013.03;5108106;27;41960;-83
2021/07/07 08:47:12;;;;;;;0.60;0.60;;;;;;;23.74;64.22;99010.22;5120443;27;41498;-81
2021/07/07 08:49:40;;;;;;;0.93;0.90;;;;;;;24.11;62.60;99028.47;5136186;27;39703;-85
2021/07/07 08:52:09;;;;;;;0.70;0.70;;;;;;;24.45;62.02;99017.31;5116402;27;41939;-87
2021/07/07 08:54:37;;;;;;;0.70;0.60;;;;;;;24.69;60.49;99019.81;5120880;27;42019;-88
2021/07/07 08:57:07;;;;;;;0.57;0.57;;;;;;;25.14;60.04;99039.75;5123417;27;41305;-81
2021/07/07 08:59:36;;;;;;;0.50;0.50;;;;;;;25.45;59.36;99045.06;5145706;27;39737;-82
2021/07/07 09:02:08;;;;;;;0.70;0.70;;;;;;;25.64;59.50;99041.81;5121548;27;41928;-83
2021/07/07 09:04:37;;;;;;;0.50;0.50;;;;;;;25.79;59.07;99028.22;5126448;27;41861;-83
2021/07/07 09:07:08;;;;;;;0.67;0.67;;;;;;;26.03;57.01;99046.06;5130836;27;41124;-87
2021/07/07 09:09:38;;;;;;;1.20;0.60;;;;;;;25.89;55.30;99069.47;5123790;27;40203;-83
2021/07/07 09:12:19;;;;;;;0.40;0.40;;;;;;;25.83;55.42;99074.84;5110848;27;40890;-83
2021/07/07 09:14:48;;;;;;;0.40;0.40;;;;;;;26.12;54.59;99082.94;5132383;27;42085;-83
2021/07/07 09:17:19;;;;;;;0.40;0.40;;;;;;;26.34;53.19;99092.00;5131883;27;41271;-84
2021/07/07 09:19:48;;;;;;;0.40;0.40;;;;;;;26.18;53.72;99089.50;5132157;27;38962;-82
2021/07/07 09:22:16;;;;;;;0.50;0.50;;;;;;;26.13;55.24;99093.59;5131549;27;40857;-85
2021/07/07 09:24:48;;;;;;;0.40;0.40;;;;;;;25.99;54.98;99089.03;5148784;27;43238;-85
2021/07/07 09:27:18;;;;;;;0.40;0.40;;;;;;;26.00;54.89;99112.44;5149326;27;42624;-87
2021/07/07 09:29:49;;;;;;;0.53;0.50;;;;;;;25.82;55.80;99098.41;5132062;27;38899;-87
2021/07/07 09:32:20;;;;;;;0.40;0.40;;;;;;;25.72;54.37;99119.53;5131275;27;41100;-91
2021/07/07 09:34:50;;;;;;;0.30;0.30;;;;;;;25.53;55.17;99103.78;5148122;27;42712;-88
2021/07/07 09:37:23;;;;;;;0.30;0.30;;;;;;;25.42;56.19;99103.22;5148360;27;41099;-85
2021/07/07 09:39:53;;;;;;;0.40;0.40;;;;;;;25.32;56.49;99086.38;5123469;27;38948;-84
2021/07/07 09:42:26;;;;;;;0.40;0.40;;;;;;;25.28;56.60;99076.91;5116665;27;41651;-88
2021/07/07 09:44:54;;;;;;;0.37;0.37;;;;;;;25.12;56.24;99055.38;5124439;27;41801;-88
2021/07/07 09:47:23;;;;;;;0.50;0.50;;;;;;;25.36;55.88;99081.41;5114815;27;41000;-88
2021/07/07 09:49:51;;;;;;;0.33;0.33;;;;;;;25.57;55.99;99084.25;5124282;27;39563;-84
2021/07/07 09:52:20;;;;;;;0.30;0.30;;;;;;;25.90;55.53;99094.75;5151320;27;40637;-84
2021/07/07 09:54:49;;;;;;;0.37;0.37;;;;;;;26.21;55.32;99097.25;5134953;27;42124;-86
2021/07/07 09:57:18;;;;;;;0.30;0.20;;;;;;;26.72;53.87;99098.91;5153863;27;43276;-85
2021/07/07 09:59:46;;;;;;;0.80;0.80;;;;;;;26.97;52.98;99099.41;5142729;27;39016;-84
2021/07/07 10:02:15;;;;;;;0.30;0.30;;;;;;;26.94;51.81;99110.69;5152054;27;41565;-84
2021/07/07 10:04:45;;;;;;;0.30;0.20;;;;;;;26.51;53.13;99081.75;5143349;27;43183;-85
2021/07/07 10:07:13;;;;;;;0.73;0.73;;;;;;;26.30;54.08;99090.72;5130190;27;42237;-82
2021/07/07 10:09:45;;;;;;;0.40;0.40;;;;;;;26.10;53.34;99077.69;5147312;27;40025;-85
2021/07/07 10:12:13;;;;;;;0.50;0.50;;;;;;;26.49;53.16;99095.53;5133996;27;41945;-83
2021/07/07 10:14:41;;;;;;;0.20;0.20;;;;;;;27.15;52.22;99101.66;5126450;27;41809;-83
2021/07/07 10:17:09;;;;;;;0.33;0.33;;;;;;;28.01;50.03;99121.34;5148708;27;42365;-84
2021/07/07 10:19:37;;;;;;;0.40;0.40;;;;;;;28.16;49.82;99122.91;5152389;27;39928;-88
2021/07/07 10:22:07;;;;;;;0.40;0.40;;;;;;;28.64;48.76;99124.78;5134765;27;40767;-90
2021/07/07 10:24:35;;;;;;;0.47;0.47;;;;;;;28.92;46.94;99139.16;5133832;27;43320;-87
2021/07/07 10:27:10;;;;;;;0.30;0.30;;;;;;;28.37;46.96;99134.75;5134158;27;41438;-86
2021/07/07 10:29:45;;;;;;;0.40;0.40;;;;;;;27.77;49.67;99106.34;5151693;27;38988;-89
2021/07/07 10:32:16;;;;;;;0.53;0.53;;;;;;;27.68;49.57;99122.00;5133300;27;41846;-89
2021/07/07 10:34:44;;;;;;;0.30;0.30;;;;;;;28.17;50.20;99112.84;5133869;27;42758;-87
2021/07/07 10:37:14;;;;;;;0.30;0.30;;;;;;;28.87;49.13;99126.16;5134951;27;41205;-88
2021/07/07 10:39:41;;;;;;;0.77;0.70;;;;;;;29.17;47.26;99125.78;5134512;27;38971;-89
2021/07/07 10:42:10;;;;;;;0.50;0.30;;;;;;;29.86;46.92;99130.78;5134191;27;40617;-83
2021/07/07 10:44:52;;;;;;;0.60;0.60;;;;;;;30.48;44.93;99148.50;5130155;27;43029;-84
2021/07/07 10:47:38;;;;;;;0.40;0.40;;;;;;;30.81;43.41;99162.03;5131004;27;42515;-87
2021/07/07 10:50:10;;;;;;;1.17;0.63;;;;;;;30.47;42.86;99136.72;5139459;27;40138;-83
2021/07/07 10:52:44;;;;;;;0.47;0.47;;;;;;;30.84;41.59;99178.84;5144674;27;42444;-86
2021/07/07 10:55:15;;;;;;;0.43;0.43;;;;;;;30.83;41.73;99168.13;5151897;27;43237;-86
2021/07/07 10:57:45;;;;;;;0.43;0.43;;;;;;;30.96;43.46;99160.69;5151734;27;42054;-82
2021/07/07 11:00:31;;;;;;;0.40;0.40;;;;;;;31.13;41.32;99174.72;5151367;27;40882;-85
2021/07/07 11:03:37;;;;;;;0.60;0.60;;;;;;;31.00;40.96;99183.81;5133388;27;40755;-88
2021/07/07 11:06:27;;;;;;;0.30;0.30;;;;;;;31.06;42.33;99166.50;5132989;27;41879;-86
2021/07/07 11:09:09;;;;;;;0.40;0.40;;;;;;;31.03;39.69;99172.41;5133016;27;41200;-85
2021/07/07 11:11:37;;;;;;;0.50;0.50;;;;;;;31.27;39.86;99168.13;5134710;27;39096;-83
2021/07/07 11:14:11;;;;;;;4.43;2.60;;;;;;;31.20;40.79;99161.00;5133473;27;40818;-85
2021/07/07 11:16:45;;;;;;;0.93;0.83;;;;;;;31.73;41.63;99156.81;5151131;27;42832;-84
2021/07/07 11:19:38;;;;;;;0.47;0.37;;;;;;;31.63;41.20;99156.44;5133040;27;41311;-82
2021/07/07 11:22:06;;;;;;;0.50;0.50;;;;;;;31.66;39.77;99166.13;5151125;27;40164;-83
2021/07/07 11:24:35;;;;;;;0.50;0.50;;;;;;;31.57;39.82;99162.81;5151446;27;41718;-84
2021/07/07 11:27:04;;;;;;;0.50;0.50;;;;;;;31.16;40.20;99146.09;5150312;27;42112;-86
2021/07/07 11:29:32;;;;;;;0.40;0.40;;;;;;;31.02;39.83;99140.69;5143169;27;42188;-89
2021/07/07 11:32:00;;;;;;;0.50;0.50;;;;;;;31.00;39.41;99151.00;5113413;27;38815;-88
2021/07/07 11:34:48;;;;;;;0.40;0.40;;;;;;;30.95;40.23;99159.00;5113210;27;41679;-84
2021/07/07 11:37:17;;;;;;;0.83;0.50;;;;;;;30.67;39.71;99153.06;5114697;27;41855;-83
2021/07/07 11:39:45;;;;;;;0.40;0.40;;;;;;;30.58;40.13;99137.97;5150904;27;42131;-85
2021/07/07 11:42:13;;;;;;;0.30;0.30;;;;;;;30.48;40.90;99137.56;5125480;27;38929;-80
2021/07/07 11:44:42;;;;;;;0.50;0.50;;;;;;;30.64;39.92;99159.81;5113219;27;40976;-87